createdAt,value
2022-08-30T00:00:15.518Z,3
2022-08-30T00:05:17.261Z,3
2022-08-30T00:10:19.033Z,4
2022-08-30T00:15:20.654Z,8
2022-08-30T00:20:22.470Z,3
2022-08-30T00:25:23.997Z,3
2022-08-30T00:30:25.595Z,2
2022-08-30T00:35:27.159Z,5
2022-08-30T00:40:28.856Z,3
2022-08-30T00:45:30.625Z,6
2022-08-30T00:50:32.204Z,5
2022-08-30T00:55:33.788Z,5
2022-08-30T01:00:35.394Z,7
2022-08-30T01:05:37.191Z,5
2022-08-30T01:10:38.767Z,5
2022-08-30T01:15:40.605Z,9
2022-08-30T01:20:42.606Z,8
2022-08-30T01:25:44.377Z,7
2022-08-30T01:30:46.039Z,6
2022-08-30T01:35:47.705Z,6
2022-08-30T01:40:49.610Z,6
2022-08-30T01:45:51.313Z,6
2022-08-30T01:50:53.188Z,4
2022-08-30T01:55:54.851Z,5
2022-08-30T02:00:56.535Z,6
2022-08-30T02:05:58.216Z,4
2022-08-30T02:10:59.910Z,4
2022-08-30T02:16:01.485Z,5
2022-08-30T02:21:03.115Z,4
2022-08-30T02:26:04.782Z,5
2022-08-30T02:31:06.640Z,5
2022-08-30T02:36:08.266Z,5
2022-08-30T02:41:09.857Z,8
2022-08-30T02:46:11.693Z,5
2022-08-30T02:51:13.319Z,6
2022-08-30T02:56:14.920Z,4
2022-08-30T03:01:16.643Z,6
2022-08-30T03:06:18.269Z,5
2022-08-30T03:11:19.858Z,5
2022-08-30T03:16:21.560Z,4
2022-08-30T03:21:23.360Z,6
2022-08-30T03:26:24.965Z,5
2022-08-30T03:31:26.746Z,3
2022-08-30T03:36:28.391Z,3
2022-08-30T03:41:30.114Z,6
2022-08-30T03:46:34.459Z,5
2022-08-30T03:51:38.450Z,5
2022-08-30T03:56:40.086Z,4
2022-08-30T04:01:41.684Z,5
2022-08-30T04:06:43.275Z,6
2022-08-30T04:11:44.868Z,4
2022-08-30T04:16:46.503Z,6
2022-08-30T04:21:48.137Z,6
2022-08-30T04:26:49.714Z,6
2022-08-30T04:31:51.367Z,5
2022-08-30T04:36:53.056Z,4
2022-08-30T04:41:54.795Z,4
2022-08-30T04:46:56.895Z,4
2022-08-30T04:51:58.467Z,3
2022-08-30T04:57:01.012Z,6
2022-08-30T05:02:02.718Z,5
2022-08-30T05:07:04.543Z,6
2022-08-30T05:12:06.169Z,4
2022-08-30T05:17:07.783Z,5
2022-08-30T05:22:09.391Z,4
2022-08-30T05:27:10.952Z,5
2022-08-30T05:32:12.537Z,6
2022-08-30T05:37:14.220Z,6
2022-08-30T05:42:16.428Z,6
2022-08-30T05:47:19.039Z,5
2022-08-30T05:52:20.649Z,8
2022-08-30T05:57:22.510Z,4
2022-08-30T06:02:24.253Z,5
2022-08-30T06:07:25.922Z,6
2022-08-30T06:12:27.563Z,5
2022-08-30T06:17:29.143Z,5
2022-08-30T06:22:30.779Z,6
2022-08-30T06:27:32.430Z,5
2022-08-30T06:32:34.060Z,7
2022-08-30T06:37:35.682Z,3
2022-08-30T06:42:37.298Z,5
2022-08-30T06:47:38.932Z,4
2022-08-30T06:52:40.525Z,4
2022-08-30T06:57:42.146Z,5
2022-08-30T07:02:43.801Z,6
2022-08-30T07:07:45.410Z,3
2022-08-30T07:12:47.012Z,6
2022-08-30T07:17:48.602Z,5
2022-08-30T07:22:50.218Z,7
2022-08-30T07:27:51.877Z,6
2022-08-30T07:32:53.504Z,5
2022-08-30T07:37:55.101Z,7
2022-08-30T07:42:56.675Z,8
2022-08-30T07:47:58.262Z,6
2022-08-30T07:52:59.867Z,10
2022-08-30T08:03:04.141Z,9
2022-08-30T08:08:05.846Z,10
2022-08-30T08:13:07.459Z,10
2022-08-30T08:18:09.135Z,9
2022-08-30T08:23:11.000Z,10
2022-08-30T08:28:12.627Z,8
2022-08-30T08:33:14.535Z,7
2022-08-30T08:38:16.323Z,7
2022-08-30T08:43:18.069Z,8
2022-08-30T08:48:19.643Z,11
2022-08-30T08:53:45.129Z,10
2022-08-30T08:58:48.200Z,7
2022-08-30T09:03:49.783Z,7
2022-08-30T09:08:51.455Z,7
2022-08-30T09:13:53.106Z,11
2022-08-30T09:18:55.448Z,8
2022-08-30T09:23:57.309Z,7
2022-08-30T09:28:58.889Z,6
2022-08-30T09:34:00.585Z,7
2022-08-30T09:39:02.844Z,8
2022-08-30T09:44:04.445Z,9
2022-08-30T09:49:06.078Z,9
2022-08-30T09:54:17.824Z,6
2022-08-30T09:59:20.084Z,8
2022-08-30T10:04:21.684Z,8
2022-08-30T10:09:23.282Z,10
2022-08-30T10:14:24.919Z,6
2022-08-30T10:19:29.181Z,8
2022-08-30T10:24:33.633Z,8
2022-08-30T10:29:39.402Z,7
2022-08-30T10:34:43.998Z,6
2022-08-30T10:39:45.689Z,7
2022-08-30T10:44:47.315Z,7
2022-08-30T10:49:48.925Z,7
2022-08-30T10:54:53.200Z,9
2022-08-30T10:59:54.795Z,7
2022-08-30T11:04:56.351Z,6
2022-08-30T11:09:57.948Z,6
2022-08-30T11:14:59.546Z,4
2022-08-30T11:20:01.215Z,4
2022-08-30T11:25:02.871Z,7
2022-08-30T11:30:11.615Z,5
2022-08-30T11:35:13.301Z,6
2022-08-30T11:40:19.751Z,7
2022-08-30T11:45:21.461Z,7
2022-08-30T11:50:26.675Z,9
2022-08-30T11:55:28.423Z,6
2022-08-30T12:00:30.016Z,6
2022-08-30T12:05:33.287Z,6
2022-08-30T12:10:35.065Z,9
2022-08-30T12:15:36.731Z,29
2022-08-30T12:20:38.580Z,20
2022-08-30T12:25:40.190Z,25
2022-08-30T12:30:41.996Z,12
2022-08-30T12:35:43.706Z,5
2022-08-30T12:40:45.444Z,15
2022-08-30T12:45:50.811Z,10
2022-08-30T12:50:53.180Z,8
2022-08-30T12:55:54.808Z,6
2022-08-30T13:00:56.706Z,11
2022-08-30T13:06:02.820Z,11
2022-08-30T13:11:07.923Z,10
2022-08-30T13:16:10.436Z,9
2022-08-30T13:21:12.153Z,17
2022-08-30T13:26:14.328Z,13
2022-08-30T13:31:22.653Z,16
2022-08-30T13:36:24.694Z,19
2022-08-30T13:41:26.601Z,12
2022-08-30T13:46:35.699Z,9
2022-08-30T13:51:37.383Z,8
2022-08-30T13:56:38.978Z,10
2022-08-30T14:02:08.274Z,10
2022-08-30T14:07:20.130Z,8
2022-08-30T14:12:52.697Z,8
2022-08-30T14:17:54.663Z,10
2022-08-30T14:22:56.246Z,7
2022-08-30T14:27:58.703Z,8
2022-08-30T14:33:00.296Z,6
2022-08-30T14:38:01.937Z,7
2022-08-30T14:43:03.505Z,11
2022-08-30T14:48:06.155Z,8
2022-08-30T14:53:13.475Z,8
2022-08-30T14:58:15.006Z,8
2022-08-30T15:03:16.587Z,11
2022-08-30T15:08:18.531Z,10
2022-08-30T15:13:20.447Z,9
2022-08-30T15:18:24.546Z,10
2022-08-30T15:23:26.154Z,10
2022-08-30T15:28:27.774Z,10
2022-08-30T15:33:29.543Z,5
2022-08-30T15:38:31.237Z,8
2022-08-30T15:43:33.811Z,9
2022-08-30T15:48:38.923Z,13
2022-08-30T15:53:43.006Z,15
2022-08-30T15:58:44.642Z,15
2022-08-30T16:03:46.235Z,12
2022-08-30T16:08:47.991Z,14
2022-08-30T16:13:50.532Z,10
2022-08-30T16:18:54.171Z,10
2022-08-30T16:23:56.365Z,9
2022-08-30T16:28:58.017Z,8
2022-08-30T16:34:02.551Z,8
2022-08-30T16:39:05.435Z,9
2022-08-30T16:44:10.177Z,10
2022-08-30T16:49:13.422Z,8
2022-08-30T16:54:15.004Z,11
2022-08-30T16:59:16.585Z,20
2022-08-30T17:04:18.855Z,32
2022-08-30T17:09:21.249Z,47
2022-08-30T17:14:29.076Z,27
2022-08-30T17:19:31.018Z,23
2022-08-30T17:24:32.649Z,29
2022-08-30T17:29:34.602Z,37
2022-08-30T17:34:36.212Z,32
2022-08-30T17:39:38.598Z,29
2022-08-30T17:44:42.068Z,24
2022-08-30T17:49:44.042Z,24
2022-08-30T17:54:45.685Z,16
2022-08-30T17:59:47.339Z,21
2022-08-30T18:04:48.982Z,20
2022-08-30T18:09:50.599Z,46
2022-08-30T18:14:52.871Z,22
2022-08-30T18:19:55.833Z,20
2022-08-30T18:25:02.517Z,44
2022-08-30T18:30:04.598Z,25
2022-08-30T18:35:06.185Z,41
2022-08-30T18:40:09.790Z,9
2022-08-30T18:45:14.855Z,10
2022-08-30T18:50:17.363Z,9
2022-08-30T18:55:21.734Z,10
2022-08-30T19:00:23.333Z,9
2022-08-30T19:05:24.931Z,9
2022-08-30T19:10:26.544Z,11
2022-08-30T19:15:28.147Z,12
2022-08-30T19:20:29.794Z,13
2022-08-30T19:25:31.371Z,10
2022-08-30T19:30:33.062Z,15
2022-08-30T19:35:34.688Z,13
2022-08-30T19:40:36.365Z,14
2022-08-30T19:45:38.057Z,14
2022-08-30T19:50:39.691Z,15
2022-08-30T19:55:42.435Z,10
2022-08-30T20:00:52.908Z,12
2022-08-30T20:05:56.480Z,10
2022-08-30T20:10:58.529Z,10
2022-08-30T20:16:00.402Z,9
2022-08-30T20:21:02.241Z,12
2022-08-30T20:26:03.905Z,11
2022-08-30T20:31:05.625Z,10
2022-08-30T20:36:07.375Z,13
2022-08-30T20:41:08.983Z,13
2022-08-30T20:46:10.629Z,14
2022-08-30T20:51:12.310Z,12
2022-08-30T20:56:13.927Z,14
2022-08-30T21:01:15.593Z,10
2022-08-30T21:06:17.239Z,11
2022-08-30T21:11:18.849Z,9
2022-08-30T21:16:22.072Z,12
2022-08-30T21:21:23.862Z,14
2022-08-30T21:26:25.466Z,10
2022-08-30T21:31:27.137Z,9
2022-08-30T21:36:28.831Z,13
2022-08-30T21:41:30.438Z,14
2022-08-30T21:46:32.171Z,9
2022-08-30T21:51:34.171Z,11
2022-08-30T21:56:36.391Z,9
2022-08-30T22:01:38.497Z,12
2022-08-30T22:06:40.290Z,12
2022-08-30T22:11:41.867Z,14
2022-08-30T22:16:44.017Z,13
2022-08-30T22:21:45.642Z,10
2022-08-30T22:26:47.220Z,11
2022-08-30T22:31:48.907Z,13
2022-08-30T22:36:50.690Z,17
2022-08-30T22:41:52.308Z,10
2022-08-30T22:46:53.914Z,12
2022-08-30T22:51:55.488Z,15
2022-08-30T22:56:57.112Z,15
2022-08-30T23:01:58.850Z,14
2022-08-30T23:07:00.702Z,10
2022-08-30T23:12:02.324Z,14
2022-08-30T23:17:03.982Z,11
2022-08-30T23:22:05.636Z,12
2022-08-30T23:27:07.216Z,14
2022-08-30T23:32:08.886Z,12
2022-08-30T23:37:10.533Z,12
2022-08-30T23:42:12.136Z,11
2022-08-30T23:47:13.762Z,13
2022-08-30T23:52:15.361Z,17
2022-08-30T23:57:16.935Z,20
